Time;durP1;ratioP1;P1;durP2;ratioP2;P2;SDS_P1;SDS_P2;PMS_P1;PMS_P2;Temp;Humidity;BMP_temperature;BMP_pressure;BME280_temperature;BME280_humidity;BME280_pressure;Samples;Min_cycle;Max_cycle;Signal;HPM_P1;HPM_P2
2023/08/16 00:00:30;;;;;;;185.90;62.53;;;;;;;;;;5070634;28;20931;-56
2023/08/16 00:02:57;;;;;;;274.73;96.00;;;;;;;;;;5070966;28;20455;-57
2023/08/16 00:05:23;;;;;;;188.60;65.37;;;;;;;;;;5071009;28;20415;-57
2023/08/16 00:07:49;;;;;;;190.47;67.67;;;;;;;;;;5074464;28;20404;-56
2023/08/16 00:10:15;;;;;;;189.20;65.73;;;;;;;;;;5074440;28;20407;-56
2023/08/16 00:12:41;;;;;;;213.27;73.60;;;;;;;;;;5074800;28;20420;-56
2023/08/16 00:15:07;;;;;;;186.23;62.07;;;;;;;;;;5074528;28;20787;-57
2023/08/16 00:17:33;;;;;;;188.37;65.77;;;;;;;;;;5074581;28;20473;-56
2023/08/16 00:19:59;;;;;;;189.07;64.97;;;;;;;;;;5074223;28;20786;-57
2023/08/16 00:22:26;;;;;;;189.33;64.97;;;;;;;;;;5074181;28;20558;-56
2023/08/16 00:24:51;;;;;;;188.87;64.67;;;;;;;;;;5074408;28;20404;-57
2023/08/16 00:27:17;;;;;;;189.63;65.63;;;;;;;;;;5074440;28;20748;-57
2023/08/16 00:29:43;;;;;;;265.90;76.97;;;;;;;;;;5074280;28;20458;-56
2023/08/16 00:32:11;;;;;;;188.67;63.97;;;;;;;;;;5074462;28;20474;-57
2023/08/16 00:34:36;;;;;;;190.90;66.27;;;;;;;;;;5074239;28;20880;-57
2023/08/16 00:37:02;;;;;;;191.53;67.53;;;;;;;;;;5075198;28;20470;-57
2023/08/16 00:39:28;;;;;;;502.67;174.30;;;;;;;;;;5074079;28;20408;-57
2023/08/16 00:41:54;;;;;;;190.37;65.03;;;;;;;;;;5073901;28;20428;-57
2023/08/16 00:44:20;;;;;;;239.93;76.87;;;;;;;;;;5073982;28;20892;-56
2023/08/16 00:46:46;;;;;;;233.33;93.30;;;;;;;;;;5073948;28;20912;-57
2023/08/16 00:49:12;;;;;;;625.73;435.37;;;;;;;;;;5074093;28;20415;-55
2023/08/16 00:51:39;;;;;;;191.50;66.77;;;;;;;;;;5073410;28;20807;-56
2023/08/16 00:54:05;;;;;;;741.87;485.17;;;;;;;;;;5073921;28;20420;-56
2023/08/16 00:56:31;;;;;;;296.33;140.43;;;;;;;;;;5073789;28;20883;-56
2023/08/16 00:58:58;;;;;;;192.73;64.97;;;;;;;;;;5073782;28;20455;-56
2023/08/16 01:01:24;;;;;;;194.37;67.17;;;;;;;;;;5072989;28;20800;-56
2023/08/16 01:03:50;;;;;;;193.57;66.67;;;;;;;;;;5073063;28;21501;-56
2023/08/16 01:06:16;;;;;;;195.67;68.70;;;;;;;;;;5073062;28;20407;-57
2023/08/16 01:08:42;;;;;;;192.83;66.40;;;;;;;;;;5072138;28;20772;-56
2023/08/16 01:11:14;;;;;;;461.27;193.07;;;;;;;;;;5073337;28;20423;-55
2023/08/16 01:13:46;;;;;;;189.30;63.37;;;;;;;;;;5073786;28;20435;-57
2023/08/16 01:16:12;;;;;;;187.43;63.83;;;;;;;;;;5073584;28;20483;-57
2023/08/16 01:18:40;;;;;;;250.60;110.00;;;;;;;;;;5072970;28;20403;-57
2023/08/16 01:21:12;;;;;;;218.57;69.90;;;;;;;;;;5073493;28;20420;-57
2023/08/16 01:23:46;;;;;;;195.03;68.13;;;;;;;;;;5073390;28;20451;-57
2023/08/16 01:26:22;;;;;;;184.73;59.97;;;;;;;;;;5073829;28;20741;-57
2023/08/16 01:28:49;;;;;;;187.87;62.23;;;;;;;;;;5073480;28;20487;-57
2023/08/16 01:31:15;;;;;;;189.87;65.03;;;;;;;;;;5072994;28;20421;-57
2023/08/16 01:33:41;;;;;;;238.53;101.90;;;;;;;;;;5073348;28;20404;-57
2023/08/16 01:36:07;;;;;;;290.20;142.53;;;;;;;;;;5073480;28;20451;-57
2023/08/16 01:38:33;;;;;;;302.63;127.77;;;;;;;;;;5073241;28;20495;-57
2023/08/16 01:41:05;;;;;;;189.57;63.53;;;;;;;;;;5073242;28;20400;-57
2023/08/16 01:43:32;;;;;;;192.47;64.37;;;;;;;;;;5073077;28;20454;-57
2023/08/16 01:45:59;;;;;;;188.67;63.50;;;;;;;;;;5073055;28;20494;-57
2023/08/16 01:48:26;;;;;;;230.27;74.67;;;;;;;;;;5073031;28;20458;-57
2023/08/16 01:50:52;;;;;;;409.90;190.70;;;;;;;;;;5072502;28;20424;-57
2023/08/16 01:53:18;;;;;;;193.83;65.53;;;;;;;;;;5073035;28;20819;-56
2023/08/16 01:55:44;;;;;;;233.10;76.60;;;;;;;;;;5072873;28;20810;-57
2023/08/16 01:58:10;;;;;;;250.40;80.47;;;;;;;;;;5072757;28;20406;-56
2023/08/16 02:00:36;;;;;;;230.57;77.33;;;;;;;;;;5072535;28;20404;-56
2023/08/16 02:03:03;;;;;;;190.47;62.87;;;;;;;;;;5072807;28;20452;-56
2023/08/16 02:05:28;;;;;;;188.87;61.87;;;;;;;;;;5072800;28;20529;-57
2023/08/16 02:07:54;;;;;;;190.70;63.33;;;;;;;;;;5072664;28;20442;-57
2023/08/16 02:10:20;;;;;;;341.17;159.50;;;;;;;;;;5072382;28;20394;-57
2023/08/16 02:12:46;;;;;;;192.80;64.47;;;;;;;;;;5072354;28;20412;-57
2023/08/16 02:15:13;;;;;;;190.60;62.50;;;;;;;;;;5072636;28;20507;-57
2023/08/16 02:17:39;;;;;;;281.70;130.17;;;;;;;;;;5072518;28;20402;-57
2023/08/16 02:20:06;;;;;;;196.37;62.53;;;;;;;;;;5072222;28;20401;-57
2023/08/16 02:22:32;;;;;;;205.80;69.30;;;;;;;;;;5072340;28;20547;-57
2023/08/16 02:24:58;;;;;;;190.97;61.87;;;;;;;;;;5072354;28;20488;-57
2023/08/16 02:27:24;;;;;;;198.80;67.83;;;;;;;;;;5072303;28;20837;-57
2023/08/16 02:29:51;;;;;;;197.43;68.60;;;;;;;;;;5071500;28;20401;-56
2023/08/16 02:32:17;;;;;;;201.70;69.10;;;;;;;;;;5072178;28;20450;-56
2023/08/16 02:34:43;;;;;;;287.30;138.63;;;;;;;;;;5072273;28;20844;-56
2023/08/16 02:37:09;;;;;;;254.03;106.67;;;;;;;;;;5072130;28;20766;-57
2023/08/16 02:39:35;;;;;;;191.07;61.80;;;;;;;;;;5072095;28;20506;-56
2023/08/16 02:42:02;;;;;;;215.90;75.17;;;;;;;;;;5068834;28;20452;-56
2023/08/16 02:44:28;;;;;;;248.70;75.53;;;;;;;;;;5071785;28;20779;-56
2023/08/16 02:46:54;;;;;;;192.77;62.87;;;;;;;;;;5070657;28;20856;-57
2023/08/16 02:49:20;;;;;;;399.57;228.90;;;;;;;;;;5071807;28;20408;-57
2023/08/16 02:51:46;;;;;;;192.70;62.00;;;;;;;;;;5071395;28;20888;-57
2023/08/16 02:54:11;;;;;;;192.40;62.93;;;;;;;;;;5071856;28;20410;-56
2023/08/16 02:56:37;;;;;;;203.60;66.47;;;;;;;;;;5071634;28;20400;-54
2023/08/16 02:59:03;;;;;;;195.27;64.10;;;;;;;;;;5076779;28;20407;-55
2023/08/16 03:01:29;;;;;;;212.00;66.80;;;;;;;;;;5072633;28;20428;-53
2023/08/16 03:03:55;;;;;;;345.30;116.83;;;;;;;;;;5071606;28;20967;-56
2023/08/16 03:06:21;;;;;;;319.33;108.03;;;;;;;;;;5071563;28;20408;-56
2023/08/16 03:08:47;;;;;;;200.03;64.87;;;;;;;;;;5071629;28;20428;-51
2023/08/16 03:11:13;;;;;;;199.50;65.57;;;;;;;;;;5071310;28;20427;-53
2023/08/16 03:13:39;;;;;;;195.20;63.67;;;;;;;;;;5072136;28;20506;-53
2023/08/16 03:16:05;;;;;;;192.23;61.97;;;;;;;;;;5071851;28;20848;-56
2023/08/16 03:18:31;;;;;;;193.93;62.17;;;;;;;;;;5071758;28;20408;-57
2023/08/16 03:20:58;;;;;;;190.97;60.27;;;;;;;;;;5071691;28;20972;-56
2023/08/16 03:23:24;;;;;;;195.33;65.33;;;;;;;;;;5070270;28;20459;-61
2023/08/16 03:25:50;;;;;;;196.47;65.37;;;;;;;;;;5071640;28;20520;-54
2023/08/16 03:28:16;;;;;;;192.80;62.67;;;;;;;;;;5071736;28;20418;-52
2023/08/16 03:30:42;;;;;;;193.43;62.27;;;;;;;;;;5071445;28;20400;-59
2023/08/16 03:33:08;;;;;;;193.97;62.17;;;;;;;;;;5071645;28;20411;-52
2023/08/16 03:35:35;;;;;;;192.63;61.43;;;;;;;;;;5071523;28;20926;-53
2023/08/16 03:38:00;;;;;;;192.97;63.43;;;;;;;;;;5071475;28;20426;-54
2023/08/16 03:40:26;;;;;;;193.77;64.50;;;;;;;;;;5070924;28;20412;-54
2023/08/16 03:42:52;;;;;;;194.53;63.93;;;;;;;;;;5075113;28;20527;-53
2023/08/16 03:45:24;;;;;;;194.17;63.80;;;;;;;;;;5075122;28;20480;-56
2023/08/16 03:47:51;;;;;;;192.10;61.00;;;;;;;;;;5075219;28;20899;-56
2023/08/16 03:50:17;;;;;;;194.27;63.23;;;;;;;;;;5074860;28;20430;-57
2023/08/16 03:52:43;;;;;;;190.37;61.27;;;;;;;;;;5066058;28;20431;-58
2023/08/16 03:55:10;;;;;;;194.37;63.17;;;;;;;;;;5075012;28;20423;-58
2023/08/16 03:57:36;;;;;;;193.67;62.23;;;;;;;;;;5075118;28;20408;-58
2023/08/16 04:00:03;;;;;;;193.07;60.90;;;;;;;;;;5074813;28;20904;-58
2023/08/16 04:02:29;;;;;;;192.03;60.77;;;;;;;;;;5074677;28;20464;-57
2023/08/16 04:04:56;;;;;;;195.30;64.57;;;;;;;;;;5073637;28;20470;-58
2023/08/16 04:07:22;;;;;;;194.40;64.27;;;;;;;;;;5074691;28;20423;-57
2023/08/16 04:09:48;;;;;;;204.10;72.10;;;;;;;;;;5075138;28;20395;-57
2023/08/16 04:12:14;;;;;;;194.13;64.40;;;;;;;;;;5074598;28;20450;-57
2023/08/16 04:14:40;;;;;;;193.27;63.27;;;;;;;;;;5074653;28;20400;-54
2023/08/16 04:17:06;;;;;;;191.37;61.53;;;;;;;;;;5074674;28;20479;-58
2023/08/16 04:19:32;;;;;;;192.93;62.87;;;;;;;;;;5074573;28;20413;-54
2023/08/16 04:21:58;;;;;;;192.57;61.57;;;;;;;;;;5074081;28;20428;-58
2023/08/16 04:24:24;;;;;;;194.77;63.37;;;;;;;;;;5074368;28;20433;-54
2023/08/16 04:26:50;;;;;;;193.43;64.87;;;;;;;;;;5074467;28;20403;-54
2023/08/16 04:29:16;;;;;;;191.93;61.03;;;;;;;;;;5074376;28;20529;-57
2023/08/16 04:31:42;;;;;;;193.67;63.67;;;;;;;;;;5072881;28;20427;-54
2023/08/16 04:34:08;;;;;;;191.27;60.67;;;;;;;;;;5074564;28;20904;-55
2023/08/16 04:36:34;;;;;;;192.90;63.27;;;;;;;;;;5075377;28;21121;-55
2023/08/16 04:39:00;;;;;;;193.43;61.97;;;;;;;;;;5074310;28;20964;-54
2023/08/16 04:41:26;;;;;;;193.77;63.00;;;;;;;;;;5074667;28;20508;-58
2023/08/16 04:43:52;;;;;;;195.03;63.67;;;;;;;;;;5074131;28;20475;-57
2023/08/16 04:46:18;;;;;;;192.50;61.87;;;;;;;;;;5074331;28;20881;-58
2023/08/16 04:48:45;;;;;;;192.67;61.67;;;;;;;;;;5074179;28;20859;-58
2023/08/16 04:51:11;;;;;;;192.37;62.90;;;;;;;;;;5073667;28;20476;-58
2023/08/16 04:53:37;;;;;;;194.60;63.10;;;;;;;;;;5073134;28;20436;-58
2023/08/16 04:56:03;;;;;;;191.97;61.53;;;;;;;;;;5074081;28;20416;-58
2023/08/16 04:58:29;;;;;;;193.67;62.47;;;;;;;;;;5073999;28;20930;-58
2023/08/16 05:00:55;;;;;;;193.23;62.57;;;;;;;;;;5073820;28;20418;-58
2023/08/16 05:03:21;;;;;;;201.40;67.87;;;;;;;;;;5071577;28;20575;-57
2023/08/16 05:05:47;;;;;;;192.27;63.67;;;;;;;;;;5074083;28;20410;-58
2023/08/16 05:08:13;;;;;;;194.70;64.63;;;;;;;;;;5073747;28;20409;-58
2023/08/16 05:10:39;;;;;;;193.90;64.37;;;;;;;;;;5073443;28;20410;-58
2023/08/16 05:13:05;;;;;;;193.63;62.77;;;;;;;;;;5073656;28;20521;-58
2023/08/16 05:15:31;;;;;;;192.40;62.90;;;;;;;;;;5073358;28;20892;-58
2023/08/16 05:17:57;;;;;;;191.97;61.40;;;;;;;;;;5073539;28;20426;-58
2023/08/16 05:20:23;;;;;;;195.60;66.10;;;;;;;;;;5072938;28;20408;-58
2023/08/16 05:22:49;;;;;;;193.20;63.17;;;;;;;;;;5080306;28;20460;-58
2023/08/16 05:25:15;;;;;;;193.60;63.83;;;;;;;;;;5073432;28;20411;-58
2023/08/16 05:27:41;;;;;;;191.20;62.60;;;;;;;;;;5073398;28;20480;-58
2023/08/16 05:30:07;;;;;;;193.37;63.67;;;;;;;;;;5073124;28;20496;-58
2023/08/16 05:32:33;;;;;;;193.23;63.80;;;;;;;;;;5073241;28;20797;-58
2023/08/16 05:34:59;;;;;;;193.17;63.20;;;;;;;;;;5072939;28;20849;-58
2023/08/16 05:37:25;;;;;;;193.63;63.73;;;;;;;;;;5073243;28;20438;-58
2023/08/16 05:39:51;;;;;;;199.27;67.87;;;;;;;;;;5072775;28;20419;-56
2023/08/16 05:42:17;;;;;;;193.37;63.80;;;;;;;;;;5072788;28;20440;-57
2023/08/16 05:44:43;;;;;;;194.67;64.97;;;;;;;;;;5072958;28;20396;-58
2023/08/16 05:47:09;;;;;;;192.67;62.93;;;;;;;;;;5072986;28;20899;-58
2023/08/16 05:49:35;;;;;;;193.53;63.13;;;;;;;;;;5072727;28;20400;-56
2023/08/16 05:52:01;;;;;;;193.27;63.63;;;;;;;;;;5072627;28;20448;-57
2023/08/16 05:54:27;;;;;;;192.10;63.27;;;;;;;;;;5072853;28;20430;-58
2023/08/16 05:56:53;;;;;;;192.83;63.33;;;;;;;;;;5072825;28;20411;-58
2023/08/16 05:59:19;;;;;;;194.40;64.87;;;;;;;;;;5072393;28;20404;-56
2023/08/16 06:01:45;;;;;;;197.43;66.80;;;;;;;;;;5071760;28;20416;-55
2023/08/16 06:04:11;;;;;;;192.67;64.10;;;;;;;;;;5071790;28;20458;-57
2023/08/16 06:06:37;;;;;;;201.60;70.77;;;;;;;;;;5071922;28;20400;-58
2023/08/16 06:09:03;;;;;;;194.67;64.03;;;;;;;;;;5071989;28;20496;-58
2023/08/16 06:11:29;;;;;;;196.50;67.13;;;;;;;;;;5071707;28;20456;-58
2023/08/16 06:13:55;;;;;;;192.07;63.77;;;;;;;;;;5072457;28;20902;-58
2023/08/16 06:16:21;;;;;;;194.73;65.07;;;;;;;;;;5071947;28;20778;-58
2023/08/16 06:18:47;;;;;;;192.13;63.60;;;;;;;;;;5072142;28;21008;-56
2023/08/16 06:21:13;;;;;;;203.40;68.93;;;;;;;;;;5072418;28;20844;-57
2023/08/16 06:23:39;;;;;;;252.53;94.17;;;;;;;;;;5070836;28;20456;-57
2023/08/16 06:26:05;;;;;;;193.50;63.87;;;;;;;;;;5072153;28;20404;-57
2023/08/16 06:28:31;;;;;;;194.17;64.63;;;;;;;;;;5072115;28;20503;-56
2023/08/16 06:30:57;;;;;;;532.77;376.03;;;;;;;;;;5071925;28;20415;-58
2023/08/16 06:33:23;;;;;;;494.13;315.90;;;;;;;;;;5070937;28;20421;-57
2023/08/16 06:35:52;;;;;;;199.47;64.13;;;;;;;;;;5072128;28;20412;-54
2023/08/16 06:38:18;;;;;;;334.17;154.97;;;;;;;;;;5072191;28;20440;-57
2023/08/16 06:40:44;;;;;;;195.57;62.77;;;;;;;;;;5071734;28;20924;-53
2023/08/16 06:43:10;;;;;;;197.03;68.57;;;;;;;;;;5071867;28;20461;-54
2023/08/16 06:45:36;;;;;;;196.77;65.73;;;;;;;;;;5071670;28;20413;-58
2023/08/16 06:48:03;;;;;;;196.37;68.27;;;;;;;;;;5067923;28;20417;-56
2023/08/16 06:50:29;;;;;;;197.07;66.17;;;;;;;;;;5072028;28;20428;-54
2023/08/16 06:52:55;;;;;;;194.47;65.77;;;;;;;;;;5071962;28;20442;-57
2023/08/16 06:55:22;;;;;;;199.30;68.17;;;;;;;;;;5071259;28;20778;-57
2023/08/16 06:57:48;;;;;;;198.20;65.97;;;;;;;;;;5069932;28;20404;-56
2023/08/16 07:00:17;;;;;;;199.17;66.70;;;;;;;;;;5070956;28;20416;-58
2023/08/16 07:02:43;;;;;;;194.47;65.03;;;;;;;;;;5070526;28;20828;-54
2023/08/16 07:05:12;;;;;;;199.83;65.87;;;;;;;;;;5070554;28;20402;-55
2023/08/16 07:07:37;;;;;;;202.63;70.87;;;;;;;;;;5069976;28;20775;-56
2023/08/16 07:10:04;;;;;;;196.90;67.17;;;;;;;;;;5070717;28;20926;-57
2023/08/16 07:12:30;;;;;;;194.97;63.67;;;;;;;;;;5070287;28;20499;-58
2023/08/16 07:14:56;;;;;;;198.37;67.13;;;;;;;;;;5071992;28;20892;-54
2023/08/16 07:17:22;;;;;;;194.97;63.80;;;;;;;;;;5071069;28;20419;-55
2023/08/16 07:19:50;;;;;;;205.97;75.17;;;;;;;;;;5071310;28;20409;-54
2023/08/16 07:22:16;;;;;;;194.40;64.47;;;;;;;;;;5071375;28;20429;-54
2023/08/16 07:24:41;;;;;;;193.87;62.63;;;;;;;;;;5071418;28;20557;-55
2023/08/16 07:27:07;;;;;;;193.23;64.23;;;;;;;;;;5071644;28;20569;-54
2023/08/16 07:29:36;;;;;;;195.67;64.17;;;;;;;;;;5071299;28;20483;-54
2023/08/16 07:32:02;;;;;;;194.67;64.23;;;;;;;;;;5071643;28;20428;-57
2023/08/16 07:34:28;;;;;;;197.87;66.67;;;;;;;;;;5071279;28;20417;-57
2023/08/16 07:36:54;;;;;;;196.13;64.13;;;;;;;;;;5070155;28;20412;-55
2023/08/16 07:39:20;;;;;;;194.03;62.83;;;;;;;;;;5071208;28;20417;-53
2023/08/16 07:41:47;;;;;;;194.43;64.93;;;;;;;;;;5071077;28;20420;-54
2023/08/16 07:44:13;;;;;;;197.70;67.60;;;;;;;;;;5071147;28;20563;-57
2023/08/16 07:46:39;;;;;;;195.43;65.57;;;;;;;;;;5071379;28;20932;-54
2023/08/16 07:49:05;;;;;;;193.93;62.43;;;;;;;;;;5071493;28;20840;-54
2023/08/16 07:51:31;;;;;;;195.27;66.10;;;;;;;;;;5077079;28;20439;-57
2023/08/16 07:53:57;;;;;;;194.67;65.13;;;;;;;;;;5071257;28;20531;-57
2023/08/16 07:56:23;;;;;;;196.57;67.33;;;;;;;;;;5071144;28;20408;-58
2023/08/16 07:58:49;;;;;;;195.80;65.33;;;;;;;;;;5071121;28;20408;-58
2023/08/16 08:01:15;;;;;;;195.10;64.67;;;;;;;;;;5070725;28;20420;-58
2023/08/16 08:03:41;;;;;;;198.40;66.93;;;;;;;;;;5070951;28;20583;-57
2023/08/16 08:06:09;;;;;;;193.67;63.27;;;;;;;;;;5071011;28;21040;-57
2023/08/16 08:08:35;;;;;;;193.93;64.57;;;;;;;;;;5071039;28;20485;-58
2023/08/16 08:11:01;;;;;;;196.17;65.10;;;;;;;;;;5070693;28;20530;-58
2023/08/16 08:13:27;;;;;;;198.13;69.00;;;;;;;;;;5071025;28;20886;-54
2023/08/16 08:15:54;;;;;;;195.93;66.47;;;;;;;;;;5071062;28;20466;-54
2023/08/16 08:18:20;;;;;;;196.60;66.13;;;;;;;;;;5070881;28;20768;-54
2023/08/16 08:20:46;;;;;;;194.67;65.47;;;;;;;;;;5069478;28;20412;-54
2023/08/16 08:23:12;;;;;;;194.37;64.60;;;;;;;;;;5066500;28;20455;-54
2023/08/16 08:25:42;;;;;;;196.23;68.57;;;;;;;;;;5070727;28;20396;-55
2023/08/16 08:28:08;;;;;;;199.40;69.37;;;;;;;;;;5070578;28;20911;-53
2023/08/16 08:30:34;;;;;;;201.77;71.50;;;;;;;;;;5072270;28;20404;-55
2023/08/16 08:33:00;;;;;;;195.33;67.23;;;;;;;;;;5072932;28;20463;-54
2023/08/16 08:35:26;;;;;;;200.17;68.53;;;;;;;;;;5072758;28;20455;-58
2023/08/16 08:37:52;;;;;;;197.93;68.97;;;;;;;;;;5072629;28;20416;-55
2023/08/16 08:40:18;;;;;;;199.03;70.83;;;;;;;;;;5073855;28;20435;-56
2023/08/16 08:42:49;;;;;;;197.97;69.67;;;;;;;;;;5074066;28;20468;-58
2023/08/16 08:45:16;;;;;;;195.37;66.27;;;;;;;;;;5074053;28;20783;-57
2023/08/16 08:47:44;;;;;;;196.10;68.00;;;;;;;;;;5074174;28;20896;-57
2023/08/16 08:50:10;;;;;;;197.30;67.30;;;;;;;;;;5072563;28;20424;-57
2023/08/16 08:52:36;;;;;;;275.23;129.90;;;;;;;;;;5090754;28;20439;-58
2023/08/16 08:55:05;;;;;;;228.43;77.77;;;;;;;;;;5076467;28;20412;-57
2023/08/16 08:57:31;;;;;;;198.47;68.17;;;;;;;;;;5059074;28;20413;-57
2023/08/16 09:00:01;;;;;;;259.17;112.90;;;;;;;;;;5075484;28;20413;-57
2023/08/16 09:02:30;;;;;;;197.10;68.57;;;;;;;;;;5064376;28;20504;-55
2023/08/16 09:04:58;;;;;;;202.33;67.13;;;;;;;;;;5060366;28;20401;-53
2023/08/16 09:07:25;;;;;;;401.47;227.80;;;;;;;;;;5073602;28;20404;-54
2023/08/16 09:09:52;;;;;;;208.93;76.37;;;;;;;;;;5072868;28;20446;-58
2023/08/16 09:12:19;;;;;;;306.23;120.63;;;;;;;;;;5053973;28;20430;-54
2023/08/16 09:14:45;;;;;;;195.17;68.33;;;;;;;;;;5072030;28;20400;-54
2023/08/16 09:17:11;;;;;;;196.47;67.93;;;;;;;;;;5072477;28;20409;-54
2023/08/16 09:19:44;;;;;;;194.93;65.83;;;;;;;;;;5073279;28;20832;-60
2023/08/16 09:22:10;;;;;;;197.50;68.70;;;;;;;;;;5073334;28;20424;-58
2023/08/16 09:24:36;;;;;;;195.80;67.00;;;;;;;;;;5066116;28;20492;-54
2023/08/16 09:27:02;;;;;;;195.57;67.67;;;;;;;;;;5057654;28;20408;-56
2023/08/16 09:29:30;;;;;;;195.50;68.27;;;;;;;;;;5073267;28;20772;-56
2023/08/16 09:31:56;;;;;;;195.40;67.00;;;;;;;;;;5073224;28;20532;-58
2023/08/16 09:34:24;;;;;;;196.23;66.87;;;;;;;;;;5073103;28;20503;-58
2023/08/16 09:36:51;;;;;;;194.53;68.13;;;;;;;;;;5073626;28;20504;-58
2023/08/16 09:39:18;;;;;;;194.93;65.57;;;;;;;;;;5072568;28;20501;-58
2023/08/16 09:41:49;;;;;;;194.37;64.37;;;;;;;;;;5073110;28;20503;-57
2023/08/16 09:44:15;;;;;;;196.83;67.77;;;;;;;;;;5072174;28;20544;-57
2023/08/16 09:46:41;;;;;;;196.37;67.63;;;;;;;;;;5072909;28;20408;-58
2023/08/16 09:49:08;;;;;;;196.47;67.87;;;;;;;;;;5072789;28;20432;-57
2023/08/16 09:51:35;;;;;;;193.73;65.83;;;;;;;;;;5081675;28;20951;-57
2023/08/16 09:54:03;;;;;;;194.77;67.93;;;;;;;;;;5093238;28;20820;-57
2023/08/16 09:56:32;;;;;;;193.90;65.80;;;;;;;;;;5093159;28;20414;-57
2023/08/16 09:59:00;;;;;;;194.73;66.27;;;;;;;;;;5093101;28;20896;-57
2023/08/16 10:01:26;;;;;;;195.43;67.00;;;;;;;;;;5092601;28;20424;-57
2023/08/16 10:03:53;;;;;;;195.10;65.70;;;;;;;;;;5092792;28;20841;-57
2023/08/16 10:06:23;;;;;;;195.33;64.77;;;;;;;;;;5093017;28;20395;-57
2023/08/16 10:08:49;;;;;;;196.10;68.30;;;;;;;;;;5092911;28;20415;-57
2023/08/16 10:11:16;;;;;;;194.33;64.83;;;;;;;;;;5092596;28;20789;-57
2023/08/16 10:13:42;;;;;;;198.53;69.57;;;;;;;;;;5092870;28;20411;-57
2023/08/16 10:16:11;;;;;;;196.63;67.17;;;;;;;;;;5092652;28;20408;-57
2023/08/16 10:18:38;;;;;;;195.47;66.33;;;;;;;;;;5092662;28;20406;-56
2023/08/16 10:21:04;;;;;;;195.10;66.53;;;;;;;;;;5092452;28;20467;-57
2023/08/16 10:23:30;;;;;;;197.73;67.10;;;;;;;;;;5092540;28;20483;-57
2023/08/16 10:25:58;;;;;;;192.77;64.83;;;;;;;;;;5092780;28;20763;-57
2023/08/16 10:28:26;;;;;;;195.80;68.17;;;;;;;;;;5092637;28;20880;-57
2023/08/16 10:30:54;;;;;;;197.00;69.17;;;;;;;;;;5092190;28;20406;-57
2023/08/16 10:33:24;;;;;;;193.77;65.57;;;;;;;;;;5092524;28;20479;-57
2023/08/16 10:35:50;;;;;;;196.97;69.13;;;;;;;;;;5092481;28;20431;-57
2023/08/16 10:38:18;;;;;;;196.33;68.13;;;;;;;;;;5092403;28;20406;-57
2023/08/16 10:40:55;;;;;;;195.40;66.73;;;;;;;;;;5092683;28;20419;-57
2023/08/16 10:43:31;;;;;;;195.37;65.47;;;;;;;;;;5092191;28;20462;-57
2023/08/16 10:45:57;;;;;;;196.43;68.27;;;;;;;;;;5092371;28;20399;-57
2023/08/16 10:48:22;;;;;;;195.83;67.17;;;;;;;;;;5092221;28;20832;-57
2023/08/16 10:50:55;;;;;;;196.77;65.63;;;;;;;;;;5066128;28;20433;-57
2023/08/16 10:53:23;;;;;;;195.93;67.63;;;;;;;;;;5071954;28;20400;-57
2023/08/16 10:55:53;;;;;;;198.67;69.73;;;;;;;;;;5071926;28;20397;-57
2023/08/16 10:58:26;;;;;;;194.33;66.07;;;;;;;;;;5071921;28;20408;-56
2023/08/16 11:00:58;;;;;;;199.90;69.73;;;;;;;;;;5071743;28;20400;-53
2023/08/16 11:03:34;;;;;;;195.27;66.43;;;;;;;;;;5071649;28;20452;-56
2023/08/16 11:06:01;;;;;;;194.23;66.17;;;;;;;;;;5071969;28;20501;-54
2023/08/16 11:08:31;;;;;;;196.97;69.33;;;;;;;;;;5071900;28;21210;-54
2023/08/16 11:10:57;;;;;;;197.43;68.67;;;;;;;;;;5071538;28;20405;-54
2023/08/16 11:13:23;;;;;;;204.03;70.43;;;;;;;;;;5072029;28;20438;-54
2023/08/16 11:15:49;;;;;;;202.20;69.40;;;;;;;;;;5090603;28;20415;-58
2023/08/16 11:18:25;;;;;;;205.70;72.40;;;;;;;;;;5090410;28;20406;-57
2023/08/16 11:20:51;;;;;;;205.20;71.70;;;;;;;;;;5089734;28;20500;-57
2023/08/16 11:23:17;;;;;;;206.77;72.27;;;;;;;;;;5090338;28;20462;-56
2023/08/16 11:25:44;;;;;;;207.87;73.37;;;;;;;;;;5090100;28;20398;-57
2023/08/16 11:28:10;;;;;;;209.57;73.60;;;;;;;;;;5089757;28;20389;-57
2023/08/16 11:30:36;;;;;;;203.20;70.33;;;;;;;;;;5091405;28;20399;-57
2023/08/16 11:33:02;;;;;;;203.67;70.97;;;;;;;;;;5091655;28;20422;-57
2023/08/16 11:35:28;;;;;;;203.07;70.87;;;;;;;;;;5091659;28;20402;-56
2023/08/16 11:37:54;;;;;;;203.43;71.47;;;;;;;;;;5092036;28;20765;-57
2023/08/16 11:40:24;;;;;;;201.37;68.73;;;;;;;;;;5091538;28;20473;-58
2023/08/16 11:42:53;;;;;;;202.73;69.37;;;;;;;;;;5062247;28;20463;-57
2023/08/16 11:45:20;;;;;;;202.67;70.63;;;;;;;;;;5071404;28;20396;-57
2023/08/16 11:47:53;;;;;;;204.07;73.33;;;;;;;;;;5067467;28;20420;-57
2023/08/16 11:50:19;;;;;;;215.40;78.93;;;;;;;;;;5064386;28;20445;-57
2023/08/16 11:52:55;;;;;;;195.37;69.53;;;;;;;;;;5061573;28;21045;-57
2023/08/16 11:55:21;;;;;;;213.63;74.37;;;;;;;;;;5067766;28;20424;-57
2023/08/16 11:57:48;;;;;;;252.30;109.47;;;;;;;;;;5068236;28;20740;-57
2023/08/16 12:00:14;;;;;;;212.20;81.23;;;;;;;;;;5060903;28;20430;-57
2023/08/16 12:02:42;;;;;;;199.33;67.27;;;;;;;;;;5068545;28;20461;-57
2023/08/16 12:05:09;;;;;;;203.27;72.67;;;;;;;;;;5069260;28;20432;-57
2023/08/16 12:07:42;;;;;;;203.90;71.87;;;;;;;;;;5072908;28;20437;-56
2023/08/16 12:10:08;;;;;;;203.63;72.93;;;;;;;;;;5072338;28;21006;-56
2023/08/16 12:12:34;;;;;;;202.73;70.37;;;;;;;;;;5074744;28;20494;-57
2023/08/16 12:15:00;;;;;;;203.43;72.57;;;;;;;;;;5074726;28;20514;-57
2023/08/16 12:17:26;;;;;;;201.07;69.60;;;;;;;;;;5075172;28;20438;-57
2023/08/16 12:19:52;;;;;;;209.67;75.93;;;;;;;;;;5074544;28;20456;-56
2023/08/16 12:22:18;;;;;;;200.30;66.93;;;;;;;;;;5067239;28;20443;-57
2023/08/16 12:24:44;;;;;;;198.13;66.47;;;;;;;;;;5071431;28;20428;-57
2023/08/16 12:27:10;;;;;;;202.47;72.50;;;;;;;;;;5066843;28;20458;-57
2023/08/16 12:29:36;;;;;;;202.33;69.93;;;;;;;;;;5074500;28;20404;-57
2023/08/16 12:32:02;;;;;;;203.03;72.63;;;;;;;;;;5070953;28;20446;-57
2023/08/16 12:34:27;;;;;;;202.07;72.63;;;;;;;;;;5068110;28;20454;-58
2023/08/16 12:36:53;;;;;;;202.87;72.83;;;;;;;;;;5064013;28;20433;-58
2023/08/16 12:39:19;;;;;;;202.17;72.30;;;;;;;;;;5069418;28;20423;-58
2023/08/16 12:41:46;;;;;;;201.90;71.80;;;;;;;;;;5064924;28;20946;-58
2023/08/16 12:44:12;;;;;;;200.83;71.63;;;;;;;;;;5072462;28;20466;-58
2023/08/16 12:46:38;;;;;;;199.80;68.90;;;;;;;;;;5074380;28;20423;-58
2023/08/16 12:49:04;;;;;;;202.83;72.37;;;;;;;;;;5074511;28;20408;-58
2023/08/16 12:51:31;;;;;;;200.97;69.37;;;;;;;;;;5082433;28;20484;-58
2023/08/16 12:53:57;;;;;;;202.97;73.17;;;;;;;;;;5094445;28;20922;-57
2023/08/16 12:56:23;;;;;;;208.93;71.83;;;;;;;;;;5082471;28;20426;-58
2023/08/16 12:58:49;;;;;;;198.40;73.20;;;;;;;;;;5072288;28;20430;-58
2023/08/16 13:01:14;;;;;;;198.00;71.87;;;;;;;;;;5073758;28;20796;-58
2023/08/16 13:03:41;;;;;;;197.27;71.63;;;;;;;;;;5074046;28;20583;-58
2023/08/16 13:06:07;;;;;;;193.30;65.83;;;;;;;;;;5074055;28;20831;-58
2023/08/16 13:08:32;;;;;;;196.57;72.23;;;;;;;;;;5074040;28;20908;-58
2023/08/16 13:10:58;;;;;;;199.73;72.83;;;;;;;;;;5068474;28;20510;-58
2023/08/16 13:13:24;;;;;;;196.40;67.83;;;;;;;;;;5071314;28;20824;-56
2023/08/16 13:15:50;;;;;;;196.47;70.20;;;;;;;;;;5073660;28;20843;-58
2023/08/16 13:18:16;;;;;;;198.23;72.33;;;;;;;;;;5073758;28;20768;-58
2023/08/16 13:20:42;;;;;;;198.77;72.93;;;;;;;;;;5073718;28;20778;-58
2023/08/16 13:23:08;;;;;;;198.10;71.80;;;;;;;;;;5073643;28;20879;-58
2023/08/16 13:25:34;;;;;;;196.77;72.07;;;;;;;;;;5071256;28;21597;-58
2023/08/16 13:28:01;;;;;;;195.87;69.17;;;;;;;;;;5070631;28;21245;-58
2023/08/16 13:30:27;;;;;;;198.53;73.73;;;;;;;;;;5067824;28;20780;-58
2023/08/16 13:32:53;;;;;;;196.80;70.07;;;;;;;;;;5068728;28;20454;-55
2023/08/16 13:35:19;;;;;;;199.07;73.17;;;;;;;;;;5064848;28;21026;-55
2023/08/16 13:37:45;;;;;;;196.13;69.17;;;;;;;;;;5061441;28;20772;-56
2023/08/16 13:40:11;;;;;;;195.70;68.83;;;;;;;;;;5072071;28;20431;-56
2023/08/16 13:42:38;;;;;;;203.50;76.97;;;;;;;;;;5067506;28;20451;-56
2023/08/16 13:45:05;;;;;;;198.40;70.47;;;;;;;;;;5071113;28;20887;-57
2023/08/16 13:47:31;;;;;;;199.03;74.17;;;;;;;;;;5068474;28;20492;-57
2023/08/16 13:49:57;;;;;;;204.20;75.97;;;;;;;;;;5072464;28;20408;-57
2023/08/16 13:52:23;;;;;;;197.80;74.53;;;;;;;;;;5072841;28;20426;-57
2023/08/16 13:54:49;;;;;;;199.77;73.80;;;;;;;;;;5072896;28;20761;-57
2023/08/16 13:57:15;;;;;;;198.00;75.27;;;;;;;;;;5073075;28;20476;-57
2023/08/16 13:59:43;;;;;;;200.60;73.10;;;;;;;;;;5072830;28;20407;-57